createdAt,value
2022-10-23T00:01:16.712Z,18.93
2022-10-23T00:03:47.192Z,20.00
2022-10-23T00:06:16.062Z,17.77
2022-10-23T00:08:44.929Z,17.67
2022-10-23T00:11:15.580Z,17.40
2022-10-23T00:13:43.777Z,16.13
2022-10-23T00:16:12.535Z,17.48
2022-10-23T00:18:41.188Z,16.75
2022-10-23T00:21:12.803Z,18.02
2022-10-23T00:23:41.618Z,17.70
2022-10-23T00:26:15.113Z,17.40
2022-10-23T00:28:43.951Z,18.25
2022-10-23T00:31:12.354Z,17.92
2022-10-23T00:33:42.561Z,17.53
2022-10-23T00:36:15.039Z,18.38
2022-10-23T00:38:46.138Z,17.60
2022-10-23T00:41:18.277Z,17.35
2022-10-23T00:44:06.346Z,17.10
2022-10-23T00:46:35.587Z,17.65
2022-10-23T00:49:04.840Z,18.27
2022-10-23T00:51:40.362Z,17.77
2022-10-23T00:54:25.412Z,16.95
2022-10-23T00:56:57.179Z,17.38
2022-10-23T00:59:26.301Z,17.75
2022-10-23T01:01:54.752Z,18.85
2022-10-23T01:04:23.949Z,17.23
2022-10-23T01:07:00.752Z,18.93
2022-10-23T01:09:36.169Z,18.80
2022-10-23T01:12:11.861Z,19.05
2022-10-23T01:14:48.337Z,16.73
2022-10-23T01:17:26.455Z,18.42
2022-10-23T01:20:11.900Z,17.23
2022-10-23T01:23:02.730Z,17.70
2022-10-23T01:25:43.558Z,16.88
2022-10-23T01:28:22.778Z,17.27
2022-10-23T01:30:52.670Z,18.27
2022-10-23T01:33:26.974Z,18.40
2022-10-23T01:36:02.394Z,17.97
2022-10-23T01:38:40.776Z,18.13
2022-10-23T01:41:23.514Z,18.67
2022-10-23T01:43:57.690Z,16.85
2022-10-23T01:46:30.883Z,17.57
2022-10-23T01:49:01.472Z,17.38
2022-10-23T01:51:32.349Z,17.70
2022-10-23T01:54:08.514Z,18.80
2022-10-23T01:56:40.554Z,19.38
2022-10-23T01:59:13.979Z,18.85
2022-10-23T02:01:45.436Z,17.58
2022-10-23T02:04:19.422Z,18.60
2022-10-23T02:06:47.622Z,19.60
2022-10-23T02:09:15.672Z,17.75
2022-10-23T02:11:53.779Z,17.25
2022-10-23T02:14:34.083Z,18.50
2022-10-23T02:17:09.640Z,18.93
2022-10-23T02:19:46.926Z,18.35
2022-10-23T02:22:19.928Z,17.98
2022-10-23T02:24:52.725Z,18.80
2022-10-23T02:27:27.401Z,17.17
2022-10-23T02:30:06.250Z,17.17
2022-10-23T02:32:37.903Z,17.25
2022-10-23T02:35:07.006Z,18.07
2022-10-23T02:37:35.883Z,17.92
2022-10-23T02:40:06.264Z,17.65
2022-10-23T02:42:51.243Z,18.57
2022-10-23T02:45:30.345Z,18.63
2022-10-23T02:48:05.525Z,17.90
2022-10-23T02:50:39.655Z,18.47
2022-10-23T02:53:17.317Z,18.63
2022-10-23T02:56:02.075Z,19.13
2022-10-23T02:58:41.855Z,17.35
2022-10-23T03:01:16.117Z,17.03
2022-10-23T03:03:54.351Z,17.35
2022-10-23T03:06:27.746Z,17.60
2022-10-23T03:09:00.788Z,17.15
2022-10-23T03:11:29.516Z,16.70
2022-10-23T03:13:57.786Z,17.73
2022-10-23T03:16:27.407Z,18.25
2022-10-23T03:18:56.356Z,18.08
2022-10-23T03:21:25.172Z,16.70
2022-10-23T03:23:55.108Z,18.27
2022-10-23T03:26:35.400Z,17.60
2022-10-23T03:29:03.526Z,17.50
2022-10-23T03:31:32.890Z,17.95
2022-10-23T03:34:04.026Z,17.63
2022-10-23T03:36:34.368Z,18.20
2022-10-23T03:39:04.056Z,18.67
2022-10-23T03:41:32.990Z,18.85
2022-10-23T03:44:01.032Z,18.13
2022-10-23T03:46:29.211Z,18.40
2022-10-23T03:48:59.603Z,17.17
2022-10-23T03:51:27.818Z,16.80
2022-10-23T03:53:56.337Z,18.55
2022-10-23T03:56:24.763Z,18.55
2022-10-23T03:58:54.567Z,18.08
2022-10-23T04:01:29.161Z,19.15
2022-10-23T04:03:58.690Z,19.08
2022-10-23T04:06:27.648Z,18.90
2022-10-23T04:08:58.251Z,18.60
2022-10-23T04:11:28.253Z,19.23
2022-10-23T04:13:56.684Z,17.80
2022-10-23T04:16:25.185Z,18.00
2022-10-23T04:18:53.881Z,18.53
2022-10-23T04:21:23.342Z,18.50
2022-10-23T04:23:51.480Z,18.13
2022-10-23T04:26:19.717Z,18.20
2022-10-23T04:28:47.833Z,17.55
2022-10-23T04:31:17.295Z,18.65
2022-10-23T04:33:45.708Z,19.90
2022-10-23T04:36:28.543Z,22.40
2022-10-23T04:38:57.091Z,21.45
2022-10-23T04:41:27.098Z,20.20
2022-10-23T04:43:55.166Z,19.63
2022-10-23T04:46:23.330Z,19.42
2022-10-23T04:48:51.454Z,18.92
2022-10-23T04:51:46.873Z,19.80
2022-10-23T04:54:40.490Z,18.92
2022-10-23T04:57:28.679Z,18.30
2022-10-23T05:00:10.899Z,19.25
2022-10-23T05:02:49.826Z,18.90
2022-10-23T05:05:19.262Z,19.75
2022-10-23T05:08:18.047Z,20.00
2022-10-23T05:11:06.786Z,20.35
2022-10-23T05:13:40.047Z,19.50
2022-10-23T05:16:09.912Z,19.03
2022-10-23T05:18:42.039Z,19.23
2022-10-23T05:21:16.284Z,18.75
2022-10-23T05:23:47.240Z,18.70
2022-10-23T05:26:15.783Z,19.08
2022-10-23T05:28:46.622Z,19.20
2022-10-23T05:31:19.110Z,18.42
2022-10-23T05:33:51.639Z,18.17
2022-10-23T05:36:23.142Z,17.00
2022-10-23T05:38:58.935Z,19.90
2022-10-23T05:41:27.831Z,53.40
2022-10-23T05:43:59.437Z,56.92
2022-10-23T05:46:46.013Z,72.40
2022-10-23T05:49:40.229Z,32.42
2022-10-23T05:52:20.310Z,24.55
2022-10-23T05:55:08.943Z,24.97
2022-10-23T05:57:48.999Z,24.27
2022-10-23T06:00:22.094Z,23.40
2022-10-23T06:03:03.542Z,22.57
2022-10-23T06:08:19.408Z,19.70
2022-10-23T06:10:51.980Z,19.50
2022-10-23T06:13:21.055Z,17.85
2022-10-23T06:15:51.474Z,18.92
2022-10-23T06:18:21.975Z,18.25
2022-10-23T06:20:57.353Z,20.45
2022-10-23T06:23:27.505Z,25.60
2022-10-23T06:26:07.817Z,30.77
2022-10-23T06:28:53.279Z,52.13
2022-10-23T06:31:26.568Z,54.30
2022-10-23T06:33:56.439Z,30.80
2022-10-23T06:36:25.661Z,26.43
2022-10-23T06:42:03.880Z,19.47
2022-10-23T06:44:55.192Z,17.30
2022-10-23T06:47:52.562Z,18.57
2022-10-23T06:50:46.601Z,17.60
2022-10-23T06:53:19.266Z,18.30
2022-10-23T06:55:55.481Z,19.42
2022-10-23T06:58:26.127Z,19.95
2022-10-23T07:01:06.804Z,18.50
2022-10-23T07:03:35.476Z,18.60
2022-10-23T07:06:09.247Z,18.38
2022-10-23T07:08:38.378Z,18.55
2022-10-23T07:11:19.323Z,19.30
2022-10-23T07:13:51.609Z,19.58
2022-10-23T07:16:23.555Z,19.73
2022-10-23T07:18:58.796Z,25.50
2022-10-23T07:21:30.937Z,25.63
2022-10-23T07:24:15.498Z,30.10
2022-10-23T07:26:44.686Z,22.63
2022-10-23T07:29:14.632Z,20.75
2022-10-23T07:31:43.771Z,19.27
2022-10-23T07:34:29.951Z,18.08
2022-10-23T07:37:14.991Z,20.50
2022-10-23T07:39:43.275Z,24.85
2022-10-23T07:42:12.040Z,23.20
2022-10-23T07:44:43.073Z,23.08
2022-10-23T07:47:11.223Z,20.80
2022-10-23T07:49:43.325Z,30.05
2022-10-23T07:52:11.451Z,23.83
2022-10-23T07:54:59.347Z,19.58
2022-10-23T07:57:31.291Z,20.75
2022-10-23T08:00:12.622Z,20.13
2022-10-23T08:02:53.187Z,19.25
2022-10-23T08:05:21.803Z,19.58
2022-10-23T08:07:56.288Z,18.63
2022-10-23T08:10:24.481Z,20.48
2022-10-23T08:12:52.490Z,20.52
2022-10-23T08:15:27.254Z,20.60
2022-10-23T08:18:01.682Z,21.92
2022-10-23T08:20:48.614Z,21.33
2022-10-23T08:23:19.290Z,20.65
2022-10-23T08:25:49.455Z,22.08
2022-10-23T08:28:19.104Z,22.70
2022-10-23T08:30:56.840Z,26.88
2022-10-23T08:33:25.537Z,22.30
2022-10-23T08:35:54.179Z,22.27
2022-10-23T08:38:29.891Z,21.20
2022-10-23T08:41:00.330Z,22.97
2022-10-23T08:43:55.801Z,21.57
2022-10-23T08:46:41.052Z,21.70
2022-10-23T08:49:37.669Z,22.15
2022-10-23T08:52:16.124Z,20.95
2022-10-23T08:54:57.487Z,20.47
2022-10-23T08:57:33.454Z,21.90
2022-10-23T09:00:04.895Z,22.15
2022-10-23T09:02:39.540Z,28.40
2022-10-23T09:05:14.937Z,24.55
2022-10-23T09:08:01.060Z,22.35
2022-10-23T09:10:57.589Z,22.92
2022-10-23T09:14:00.925Z,21.95
2022-10-23T09:16:42.718Z,22.77
2022-10-23T09:19:17.142Z,21.77
2022-10-23T09:21:49.816Z,23.35
2022-10-23T09:24:19.227Z,23.95
2022-10-23T09:26:49.772Z,24.85
2022-10-23T09:29:24.294Z,25.27
2022-10-23T09:31:54.467Z,25.75
2022-10-23T09:34:25.654Z,25.70
2022-10-23T09:39:32.016Z,25.05
2022-10-23T09:42:02.462Z,24.63
2022-10-23T09:44:32.396Z,23.83
2022-10-23T09:47:02.398Z,26.50
2022-10-23T09:49:33.808Z,32.20
2022-10-23T09:52:04.351Z,29.10
2022-10-23T09:54:34.742Z,26.25
2022-10-23T09:57:16.386Z,25.50
2022-10-23T09:59:44.825Z,24.42
2022-10-23T10:02:27.234Z,23.97
2022-10-23T10:05:24.824Z,25.17
2022-10-23T10:07:59.926Z,27.52
2022-10-23T10:10:32.203Z,27.10
2022-10-23T10:13:11.958Z,27.15
2022-10-23T10:15:51.659Z,25.70
2022-10-23T10:18:25.677Z,25.80
2022-10-23T10:21:04.914Z,28.13
2022-10-23T10:23:38.752Z,26.85
2022-10-23T10:26:21.050Z,26.08
2022-10-23T10:29:00.325Z,26.35
2022-10-23T10:31:39.908Z,27.00
2022-10-23T10:34:16.399Z,26.20
2022-10-23T10:36:52.248Z,26.92
2022-10-23T10:39:33.168Z,25.70
2022-10-23T10:42:19.824Z,26.95
2022-10-23T10:45:20.291Z,26.35
2022-10-23T10:48:01.544Z,25.35
2022-10-23T10:50:44.876Z,25.13
2022-10-23T10:53:33.592Z,24.98
2022-10-23T10:56:05.422Z,24.60
2022-10-23T10:58:41.200Z,24.80
2022-10-23T11:01:15.955Z,24.88
2022-10-23T11:03:52.130Z,25.00
2022-10-23T11:06:24.389Z,25.65
2022-10-23T11:08:57.876Z,24.42
2022-10-23T11:11:37.199Z,24.00
2022-10-23T11:14:05.450Z,24.05
2022-10-23T11:16:37.183Z,24.38
2022-10-23T11:19:13.005Z,24.57
2022-10-23T11:21:46.158Z,27.95
2022-10-23T11:24:58.203Z,26.52
2022-10-23T11:28:09.949Z,26.85
2022-10-23T11:30:50.673Z,25.15
2022-10-23T11:33:53.566Z,24.08
2022-10-23T11:36:35.767Z,24.77
2022-10-23T11:39:18.722Z,25.57
2022-10-23T11:41:55.723Z,27.60
2022-10-23T11:44:40.154Z,26.88
2022-10-23T11:47:39.526Z,27.35
2022-10-23T11:50:16.702Z,28.88
2022-10-23T11:53:12.944Z,25.67
2022-10-23T11:55:56.299Z,24.58
2022-10-23T11:58:32.532Z,28.33
2022-10-23T12:01:06.911Z,24.30
2022-10-23T12:03:44.355Z,26.33
2022-10-23T12:06:21.892Z,25.30
2022-10-23T12:08:54.471Z,25.65
2022-10-23T12:11:41.249Z,30.10
2022-10-23T12:14:29.631Z,25.77
2022-10-23T12:17:01.074Z,24.40
2022-10-23T12:19:31.386Z,23.33
2022-10-23T12:22:02.544Z,25.70
2022-10-23T12:24:52.489Z,23.73
2022-10-23T12:27:30.631Z,23.83
2022-10-23T12:30:15.612Z,26.08
2022-10-23T12:33:06.477Z,25.13
2022-10-23T12:35:54.772Z,31.35
2022-10-23T12:38:26.383Z,28.42
2022-10-23T12:40:56.334Z,26.70
2022-10-23T12:43:28.923Z,31.10
2022-10-23T12:46:04.091Z,27.70
2022-10-23T12:48:35.451Z,25.58
2022-10-23T12:51:03.499Z,27.10
2022-10-23T12:53:31.557Z,28.30
2022-10-23T12:56:04.391Z,28.10
2022-10-23T12:58:34.407Z,28.67
2022-10-23T13:01:08.489Z,28.33
2022-10-23T13:03:39.295Z,29.30
2022-10-23T13:06:08.198Z,27.60
2022-10-23T13:08:41.986Z,27.90
2022-10-23T13:11:29.798Z,29.73
2022-10-23T13:14:01.888Z,29.98
2022-10-23T13:16:31.594Z,29.00
2022-10-23T13:19:00.081Z,27.88
2022-10-23T13:21:30.268Z,29.35
2022-10-23T13:23:58.714Z,27.65
2022-10-23T13:26:34.679Z,27.63
2022-10-23T13:29:07.391Z,30.08
2022-10-23T13:31:39.024Z,30.73
2022-10-23T13:34:20.011Z,29.88
2022-10-23T13:36:53.857Z,30.50
2022-10-23T13:39:25.619Z,33.50
2022-10-23T13:41:53.704Z,31.70
2022-10-23T13:44:23.752Z,32.78
2022-10-23T13:46:53.599Z,32.33
2022-10-23T13:49:21.822Z,30.40
2022-10-23T13:51:53.312Z,29.10
2022-10-23T13:54:23.461Z,30.47
2022-10-23T13:56:51.944Z,31.73
2022-10-23T13:59:19.980Z,28.88
2022-10-23T14:01:50.170Z,30.20
2022-10-23T14:04:20.217Z,29.90
2022-10-23T14:06:48.574Z,31.13
2022-10-23T14:09:19.636Z,30.30
2022-10-23T14:11:48.076Z,29.73
2022-10-23T14:14:18.528Z,31.85
2022-10-23T14:16:46.782Z,32.58
2022-10-23T14:19:14.778Z,37.05
2022-10-23T14:21:44.191Z,44.10
2022-10-23T14:24:12.288Z,37.55
2022-10-23T14:26:40.283Z,36.17
2022-10-23T14:29:11.419Z,48.15
2022-10-23T14:31:42.059Z,47.60
2022-10-23T14:34:10.088Z,44.03
2022-10-23T14:36:49.501Z,40.00
2022-10-23T14:39:20.017Z,36.17
2022-10-23T14:41:52.311Z,41.88
2022-10-23T14:44:22.682Z,46.00
2022-10-23T14:46:50.714Z,40.33
2022-10-23T14:49:18.817Z,39.15
2022-10-23T14:51:46.788Z,39.63
2022-10-23T14:54:15.775Z,37.47
2022-10-23T14:56:45.103Z,32.40
2022-10-23T14:59:15.146Z,36.38
2022-10-23T15:01:48.183Z,34.88
2022-10-23T15:04:16.819Z,33.33
2022-10-23T15:06:46.328Z,32.25
2022-10-23T15:09:14.917Z,31.65
2022-10-23T15:11:42.950Z,38.33
2022-10-23T15:14:12.388Z,41.23
2022-10-23T15:16:42.226Z,32.15
2022-10-23T15:19:15.114Z,32.03
2022-10-23T15:21:46.895Z,36.20
2022-10-23T15:24:17.648Z,31.77
2022-10-23T15:26:46.119Z,32.92
2022-10-23T15:29:16.378Z,32.45
2022-10-23T15:31:54.372Z,32.53
2022-10-23T15:34:24.858Z,34.95
2022-10-23T15:36:53.966Z,33.27
2022-10-23T15:39:24.192Z,38.90
2022-10-23T15:41:54.204Z,36.00
2022-10-23T15:44:25.687Z,29.13
2022-10-23T15:46:53.686Z,31.30
2022-10-23T15:49:21.720Z,33.42
2022-10-23T15:51:49.866Z,33.65
2022-10-23T15:54:22.027Z,33.03
2022-10-23T15:56:52.671Z,30.10
2022-10-23T15:59:25.026Z,31.65
2022-10-23T16:01:53.789Z,35.20
2022-10-23T16:04:22.639Z,34.67
2022-10-23T16:06:50.942Z,31.67
2022-10-23T16:09:19.002Z,34.55
2022-10-23T16:11:46.955Z,37.08
2022-10-23T16:14:17.649Z,40.33
2022-10-23T16:16:47.034Z,43.75
2022-10-23T16:19:15.369Z,48.45
2022-10-23T16:21:43.603Z,37.17
2022-10-23T16:24:11.831Z,35.53
2022-10-23T16:26:40.064Z,36.37
2022-10-23T16:29:09.541Z,31.97
2022-10-23T16:31:37.910Z,30.75
2022-10-23T16:34:07.974Z,34.97
2022-10-23T16:36:39.147Z,33.70
2022-10-23T16:39:11.460Z,32.93
2022-10-23T16:41:58.051Z,31.85
2022-10-23T16:44:32.976Z,33.75
2022-10-23T16:47:04.488Z,33.83
2022-10-23T16:49:36.100Z,33.95
2022-10-23T16:52:04.102Z,55.27
2022-10-23T16:54:32.369Z,39.20
2022-10-23T16:57:00.407Z,37.47
2022-10-23T16:59:28.523Z,41.13
2022-10-23T17:01:56.629Z,40.33
2022-10-23T17:04:24.844Z,34.85
2022-10-23T17:06:54.260Z,47.72
2022-10-23T17:09:23.605Z,38.30
2022-10-23T17:11:53.886Z,37.47
2022-10-23T17:14:25.252Z,36.08
2022-10-23T17:16:54.262Z,36.15
2022-10-23T17:19:43.654Z,36.13
2022-10-23T17:22:14.679Z,36.35
2022-10-23T17:24:46.139Z,41.45
2022-10-23T17:27:17.455Z,36.17
2022-10-23T17:29:45.529Z,35.30
2022-10-23T17:32:13.630Z,32.53
2022-10-23T17:34:41.942Z,38.90
2022-10-23T17:37:10.234Z,69.70
2022-10-23T17:39:41.369Z,52.88
2022-10-23T17:42:10.565Z,45.60
2022-10-23T17:44:38.568Z,53.60
2022-10-23T17:47:06.914Z,37.10
2022-10-23T17:49:35.330Z,33.25
2022-10-23T17:52:03.367Z,33.22
2022-10-23T17:54:31.467Z,33.97
2022-10-23T17:57:00.894Z,32.42
2022-10-23T17:59:29.240Z,30.17
2022-10-23T18:01:59.708Z,32.75
2022-10-23T18:04:28.482Z,33.90
2022-10-23T18:06:59.660Z,35.53
2022-10-23T18:09:27.848Z,33.40
2022-10-23T18:11:56.409Z,31.40
2022-10-23T18:14:29.497Z,31.10
2022-10-23T18:16:57.982Z,35.03
2022-10-23T18:19:26.215Z,41.17
2022-10-23T18:21:54.424Z,35.08
2022-10-23T18:24:26.677Z,33.33
2022-10-23T18:26:57.612Z,33.87
2022-10-23T18:29:26.981Z,34.28
2022-10-23T18:31:56.714Z,35.08
2022-10-23T18:34:26.295Z,42.28
2022-10-23T18:36:55.791Z,39.22
2022-10-23T18:39:25.807Z,36.97
2022-10-23T18:41:55.592Z,36.42
2022-10-23T18:44:25.516Z,35.03
2022-10-23T18:46:56.146Z,34.37
2022-10-23T18:49:24.945Z,38.03
2022-10-23T18:51:53.054Z,35.00
2022-10-23T18:54:22.571Z,35.60
2022-10-23T18:56:51.135Z,39.60
2022-10-23T18:59:21.396Z,39.20
2022-10-23T19:01:50.058Z,34.67
2022-10-23T19:04:20.555Z,36.83
2022-10-23T19:06:50.041Z,36.28
2022-10-23T19:09:19.091Z,46.05
2022-10-23T19:11:48.281Z,44.65
2022-10-23T19:14:16.599Z,34.70
2022-10-23T19:16:54.430Z,35.28
2022-10-23T19:19:28.360Z,36.05
2022-10-23T19:21:59.628Z,37.10
2022-10-23T19:24:33.671Z,35.47
2022-10-23T19:27:03.217Z,34.60
2022-10-23T19:29:32.388Z,37.65
2022-10-23T19:32:00.608Z,35.78
2022-10-23T19:34:29.996Z,36.65
2022-10-23T19:36:58.028Z,37.72
2022-10-23T19:39:26.654Z,43.53
2022-10-23T19:41:55.561Z,37.88
2022-10-23T19:44:23.542Z,39.20
2022-10-23T19:46:52.014Z,34.08
2022-10-23T19:49:20.476Z,37.08
2022-10-23T19:51:54.001Z,36.20
2022-10-23T19:54:22.331Z,37.73
2022-10-23T19:56:50.556Z,35.95
2022-10-23T19:59:20.406Z,37.30
2022-10-23T20:01:49.372Z,39.85
2022-10-23T20:04:19.092Z,36.63
2022-10-23T20:06:48.139Z,32.40
2022-10-23T20:09:17.610Z,33.30
2022-10-23T20:11:45.755Z,33.08
2022-10-23T20:14:14.479Z,33.83
2022-10-23T20:16:45.822Z,34.65
2022-10-23T20:21:45.720Z,36.75
2022-10-23T20:24:17.532Z,42.08
2022-10-23T20:26:47.460Z,41.17
2022-10-23T20:29:15.923Z,33.35
2022-10-23T20:31:44.534Z,36.10
2022-10-23T20:34:13.037Z,31.77
2022-10-23T20:36:45.628Z,33.20
2022-10-23T20:39:19.545Z,34.85
2022-10-23T20:41:48.507Z,46.15
2022-10-23T20:44:18.722Z,34.78
2022-10-23T20:46:46.988Z,34.20
2022-10-23T20:49:15.387Z,34.00
2022-10-23T20:51:46.583Z,34.80
2022-10-23T20:54:14.743Z,34.35
2022-10-23T20:56:44.229Z,34.83
2022-10-23T20:59:14.446Z,32.88
2022-10-23T21:01:44.272Z,31.85
2022-10-23T21:04:13.560Z,30.83
2022-10-23T21:06:57.729Z,30.80
2022-10-23T21:09:31.436Z,30.98
2022-10-23T21:12:00.901Z,31.95
2022-10-23T21:14:29.539Z,33.80
2022-10-23T21:16:57.577Z,29.00
2022-10-23T21:19:25.581Z,31.33
2022-10-23T21:21:53.833Z,29.33
2022-10-23T21:24:22.083Z,29.10
2022-10-23T21:26:50.142Z,19.90
2022-10-23T21:29:20.452Z,20.53
2022-10-23T21:31:53.921Z,20.30
2022-10-23T21:34:22.291Z,20.15
2022-10-23T21:39:38.179Z,21.17
2022-10-23T21:42:06.220Z,20.02
2022-10-23T21:44:35.504Z,18.33
2022-10-23T21:47:03.458Z,20.35
2022-10-23T21:49:31.422Z,19.23
2022-10-23T21:51:59.392Z,20.00
2022-10-23T21:54:27.328Z,19.50
2022-10-23T21:56:55.374Z,19.67
2022-10-23T21:59:26.685Z,19.02
2022-10-23T22:01:58.433Z,19.07
2022-10-23T22:04:26.491Z,18.60
2022-10-23T22:06:54.528Z,17.95
2022-10-23T22:09:23.284Z,18.37
2022-10-23T22:11:52.259Z,17.95
2022-10-23T22:14:20.616Z,16.13
2022-10-23T22:16:49.475Z,15.98
2022-10-23T22:19:20.023Z,16.10
2022-10-23T22:21:48.795Z,16.30
2022-10-23T22:24:17.547Z,16.70
2022-10-23T22:26:48.513Z,15.85
2022-10-23T22:29:17.978Z,16.95
2022-10-23T22:31:48.946Z,15.40
2022-10-23T22:34:47.803Z,15.68
2022-10-23T22:37:11.941Z,15.70
2022-10-23T22:39:40.250Z,17.38
2022-10-23T22:42:08.607Z,15.70
2022-10-23T22:44:36.577Z,16.65
2022-10-23T22:47:04.864Z,16.70
2022-10-23T22:49:34.148Z,16.30
2022-10-23T22:52:02.144Z,16.20
2022-10-23T22:54:31.307Z,16.20
2022-10-23T22:56:59.316Z,15.48
2022-10-23T22:59:27.648Z,15.52
2022-10-23T23:01:55.893Z,15.65
2022-10-23T23:04:39.706Z,15.80
2022-10-23T23:07:10.651Z,16.75
2022-10-23T23:09:39.565Z,16.65
2022-10-23T23:12:08.670Z,15.23
2022-10-23T23:14:37.008Z,16.73
2022-10-23T23:17:05.293Z,14.93
2022-10-23T23:19:33.312Z,14.52
2022-10-23T23:22:02.194Z,15.23
2022-10-23T23:24:32.142Z,14.90
2022-10-23T23:27:00.268Z,16.00
2022-10-23T23:29:29.561Z,15.70
2022-10-23T23:31:57.690Z,15.87
2022-10-23T23:34:25.752Z,16.13
2022-10-23T23:36:53.831Z,15.27
2022-10-23T23:39:21.894Z,15.90
2022-10-23T23:41:51.418Z,15.00
2022-10-23T23:44:19.347Z,14.35
2022-10-23T23:46:47.347Z,15.35
2022-10-23T23:49:15.311Z,16.40
2022-10-23T23:51:43.446Z,15.23
2022-10-23T23:54:11.379Z,15.43
2022-10-23T23:56:39.420Z,15.88
2022-10-23T23:59:08.970Z,15.05
